Time;durP1;ratioP1;P1;durP2;ratioP2;P2;SDS_P1;SDS_P2;PMS_P1;PMS_P2;Temp;Humidity;BMP_temperature;BMP_pressure;BME280_temperature;BME280_humidity;BME280_pressure;Samples;Min_cycle;Max_cycle;Signal;HPM_P1;HPM_P2
2023/07/31 00:00:08;;;;;;;;;20.20;20.20;;;;;20.75;70.97;99079.16;5033427;28;8896;-79
2023/07/31 00:02:57;;;;;;;;;18.80;18.40;;;;;20.73;69.84;99081.09;5051473;28;8933;-76
2023/07/31 00:05:26;;;;;;;;;22.00;19.80;;;;;20.25;71.47;99092.41;5065426;28;8838;-77
2023/07/31 00:07:57;;;;;;;;;20.20;20.20;;;;;20.44;71.59;99088.47;5070617;28;8858;-78
2023/07/31 00:10:25;;;;;;;;;22.20;19.80;;;;;20.10;72.23;99088.97;5069830;28;10133;-78
2023/07/31 00:12:54;;;;;;;;;18.40;18.20;;;;;19.98;72.82;99094.25;5083866;28;8847;-78
2023/07/31 00:15:23;;;;;;;;;18.20;17.80;;;;;19.88;73.26;99099.38;5089948;28;8859;-75
2023/07/31 00:17:52;;;;;;;;;16.40;16.40;;;;;20.03;73.11;99093.00;5087015;28;8951;-76
2023/07/31 00:20:20;;;;;;;;;20.80;17.60;;;;;19.94;73.04;99098.09;5071133;28;8847;-77
2023/07/31 00:22:49;;;;;;;;;18.40;18.20;;;;;20.14;72.45;99097.59;5068011;28;8935;-77
2023/07/31 00:25:19;;;;;;;;;16.20;16.20;;;;;20.19;72.19;99098.13;5068138;28;8866;-76
2023/07/31 00:27:48;;;;;;;;;17.80;16.40;;;;;20.25;71.92;99097.72;5006284;28;8863;-79
2023/07/31 00:30:17;;;;;;;;;17.40;17.40;;;;;20.46;71.72;99097.22;5028449;28;9021;-77
2023/07/31 00:32:46;;;;;;;;;18.00;17.60;;;;;20.55;72.19;99095.75;5027491;28;8906;-77
2023/07/31 00:35:15;;;;;;;;;17.80;17.80;;;;;20.65;71.31;99095.00;5013411;28;8886;-75
2023/07/31 00:37:44;;;;;;;;;18.20;18.00;;;;;20.69;71.63;99084.94;5051303;28;9662;-77
2023/07/31 00:40:13;;;;;;;;;17.00;16.60;;;;;20.75;71.67;99081.00;5002106;28;8838;-76
2023/07/31 00:42:44;;;;;;;;;18.40;17.00;;;;;20.81;71.13;99077.88;5050696;28;9994;-76
2023/07/31 00:45:13;;;;;;;;;16.00;16.00;;;;;20.85;71.09;99077.53;4995446;28;9967;-77
2023/07/31 00:47:42;;;;;;;;;17.80;17.40;;;;;20.87;70.59;99074.75;5027576;28;8847;-78
2023/07/31 00:50:11;;;;;;;;;19.40;18.40;;;;;20.86;70.78;99081.09;5034407;28;9695;-77
2023/07/31 00:52:40;;;;;;;;;19.40;19.40;;;;;20.91;70.34;99072.72;5051044;28;8831;-78
2023/07/31 00:55:09;;;;;;;;;19.20;18.20;;;;;20.90;70.25;99068.34;5067607;28;8855;-76
2023/07/31 00:57:42;;;;;;;;;20.00;19.20;;;;;20.94;70.72;99073.41;5069086;28;8842;-77
2023/07/31 01:00:14;;;;;;;;;16.80;16.80;;;;;20.92;70.69;99067.31;5068968;28;8905;-78
2023/07/31 01:02:43;;;;;;;;;17.60;14.20;;;;;20.93;70.31;99063.66;5072080;28;8878;-76
2023/07/31 01:05:12;;;;;;;;;23.40;21.00;;;;;20.93;70.05;99065.50;5072079;28;9648;-79
2023/07/31 01:07:50;;;;;;;;;17.00;16.80;;;;;20.94;70.02;99059.19;5089881;28;8840;-78
2023/07/31 01:10:24;;;;;;;;;19.40;19.40;;;;;20.94;70.06;99065.38;5081299;28;8941;-77
2023/07/31 01:12:54;;;;;;;;;18.40;17.00;;;;;20.93;70.12;99068.16;5087715;28;8850;-78
2023/07/31 01:15:24;;;;;;;;;20.80;19.40;;;;;20.97;69.46;99062.47;5070582;28;8947;-78
2023/07/31 01:17:53;;;;;;;;;17.00;16.60;;;;;20.86;70.08;99059.72;5105397;28;8941;-76
2023/07/31 01:20:24;;;;;;;;;20.20;19.80;;;;;20.92;70.57;99064.66;5085211;28;8860;-78
2023/07/31 01:23:32;;;;;;;;;16.00;15.60;;;;;21.09;70.22;99051.88;5088783;28;8917;-77
2023/07/31 01:26:12;;;;;;;;;17.40;17.20;;;;;21.10;69.71;99062.44;5007500;28;9684;-77
2023/07/31 01:28:51;;;;;;;;;16.00;16.00;;;;;21.04;69.76;99055.72;4975502;28;8881;-77
2023/07/31 01:31:23;;;;;;;;;16.40;15.60;;;;;20.94;69.95;99057.38;5006978;28;8882;-76
2023/07/31 01:33:55;;;;;;;;;20.00;19.20;;;;;20.94;69.71;99060.03;4991439;28;8877;-76
2023/07/31 01:36:25;;;;;;;;;16.80;15.80;;;;;20.78;69.41;99056.72;5005311;28;8865;-77
2023/07/31 01:38:58;;;;;;;;;17.60;17.60;;;;;20.61;69.66;99064.09;4991060;28;8908;-77
2023/07/31 01:41:28;;;;;;;;;19.20;17.80;;;;;20.56;70.74;99058.25;5000733;28;9587;-75
2023/07/31 01:43:58;;;;;;;;;16.00;16.00;;;;;20.62;70.35;99056.97;4986231;28;9956;-77
2023/07/31 01:46:26;;;;;;;;;17.00;15.60;;;;;20.68;70.53;99053.84;4954858;28;8865;-75
2023/07/31 01:48:55;;;;;;;;;13.40;13.20;;;;;20.63;69.79;99056.88;4984045;28;8880;-79
2023/07/31 01:51:25;;;;;;;;;15.40;14.60;;;;;20.63;69.50;99050.66;4971992;28;8870;-77
2023/07/31 01:53:54;;;;;;;;;20.20;19.20;;;;;20.62;69.73;99041.78;5006758;28;8866;-77
2023/07/31 01:56:22;;;;;;;;;16.00;15.00;;;;;20.66;69.36;99045.94;5006861;28;8942;-77
2023/07/31 01:58:53;;;;;;;;;20.20;16.60;;;;;20.65;69.39;99040.72;5006458;28;8881;-77
2023/07/31 02:01:21;;;;;;;;;18.40;17.20;;;;;20.63;69.85;99045.31;4990378;28;8873;-77
2023/07/31 02:03:50;;;;;;;;;17.40;17.40;;;;;20.38;70.37;99048.84;5050717;28;8881;-78
2023/07/31 02:06:19;;;;;;;;;19.00;17.60;;;;;20.44;70.55;99038.63;5048825;28;8907;-77
2023/07/31 02:08:48;;;;;;;;;17.80;17.60;;;;;20.52;70.10;99035.41;5067794;28;8873;-77
2023/07/31 02:11:17;;;;;;;;;18.60;17.60;;;;;20.46;70.09;99035.81;5067366;28;8846;-77
2023/07/31 02:13:46;;;;;;;;;17.60;17.60;;;;;20.52;70.28;99039.88;5067371;28;8854;-76
2023/07/31 02:16:16;;;;;;;;;17.80;17.80;;;;;20.59;70.19;99036.66;5073422;28;8870;-76
2023/07/31 02:18:45;;;;;;;;;16.60;14.20;;;;;20.57;69.58;99040.41;5074499;28;8854;-76
2023/07/31 02:21:14;;;;;;;;;21.80;20.80;;;;;20.67;70.22;99034.31;5036534;28;8878;-78
2023/07/31 02:23:43;;;;;;;;;17.20;17.00;;;;;20.74;69.79;99041.88;5068795;28;8870;-77
2023/07/31 02:26:12;;;;;;;;;18.20;18.20;;;;;20.79;69.47;99031.72;5082227;28;8959;-76
2023/07/31 02:28:42;;;;;;;;;17.40;17.40;;;;;20.84;69.73;99041.13;5087046;28;8882;-77
2023/07/31 02:31:12;;;;;;;;;16.80;16.40;;;;;20.83;69.45;99035.88;5070677;28;9022;-78
2023/07/31 02:33:43;;;;;;;;;16.80;15.60;;;;;20.84;69.35;99025.09;5048290;28;8862;-76
2023/07/31 02:36:11;;;;;;;;;18.80;18.40;;;;;20.83;69.36;99026.03;5067469;28;8931;-77
2023/07/31 02:38:40;;;;;;;;;18.40;17.40;;;;;20.82;69.84;99026.16;5067326;28;8839;-76
2023/07/31 02:41:09;;;;;;;;;18.40;18.00;;;;;20.86;69.66;99038.34;5050309;28;8850;-79
2023/07/31 02:43:38;;;;;;;;;21.40;20.60;;;;;20.73;69.77;99035.69;5059570;28;8824;-80
2023/07/31 02:46:06;;;;;;;;;22.00;21.00;;;;;20.78;69.30;99035.34;5053036;28;9010;-77
2023/07/31 02:48:35;;;;;;;;;18.60;18.00;;;;;20.49;70.48;99036.44;5070665;28;8874;-78
2023/07/31 02:51:06;;;;;;;;;21.40;21.00;;;;;20.41;70.75;99036.16;5104120;28;8911;-76
2023/07/31 02:53:35;;;;;;;;;21.20;21.20;;;;;20.44;70.76;99037.75;5066692;28;8827;-77
2023/07/31 02:56:04;;;;;;;;;24.40;20.80;;;;;20.28;71.21;99035.31;5083382;28;8880;-77
2023/07/31 02:58:33;;;;;;;;;23.60;21.60;;;;;20.21;71.46;99037.50;5049111;28;8839;-77
2023/07/31 03:01:02;;;;;;;;;21.80;20.80;;;;;20.15;71.73;99045.94;5053155;28;8850;-81
2023/07/31 03:03:31;;;;;;;;;23.60;22.40;;;;;20.18;71.59;99040.41;5068923;28;8905;-78
2023/07/31 03:06:00;;;;;;;;;24.20;24.20;;;;;20.22;71.86;99041.03;5085533;28;8868;-78
2023/07/31 03:08:30;;;;;;;;;24.00;22.60;;;;;19.94;72.96;99042.94;5068988;28;8857;-78
2023/07/31 03:10:59;;;;;;;;;22.60;21.80;;;;;20.03;72.85;99049.47;5068779;28;8842;-76
2023/07/31 03:13:28;;;;;;;;;21.80;21.80;;;;;19.87;73.40;99050.47;5031441;28;8936;-78
2023/07/31 03:15:57;;;;;;;;;27.40;24.80;;;;;19.87;73.66;99053.13;5031481;28;8864;-76
2023/07/31 03:18:26;;;;;;;;;25.00;22.80;;;;;19.88;73.40;99048.69;5048859;28;8925;-77
2023/07/31 03:20:55;;;;;;;;;36.80;32.80;;;;;19.58;75.08;99049.78;5065436;28;8987;-77
2023/07/31 03:23:25;;;;;;;;;34.80;32.60;;;;;19.89;74.12;99053.03;5065553;28;9681;-78
2023/07/31 03:25:59;;;;;;;;;35.00;33.00;;;;;19.87;74.30;99058.47;5032638;28;8862;-75
2023/07/31 03:28:31;;;;;;;;;31.00;29.40;;;;;19.86;74.00;99059.44;5045944;28;8967;-78
2023/07/31 03:31:00;;;;;;;;;28.60;28.00;;;;;19.93;73.60;99053.69;5028908;28;8974;-77
2023/07/31 03:33:29;;;;;;;;;28.60;27.80;;;;;19.52;75.60;99067.03;5011181;28;8977;-80
2023/07/31 03:35:58;;;;;;;;;32.20;30.80;;;;;19.49;75.91;99072.50;5065320;28;8834;-81
2023/07/31 03:38:27;;;;;;;;;33.80;31.80;;;;;19.52;76.05;99076.84;5048968;28;8955;-77
2023/07/31 03:40:56;;;;;;;;;30.80;30.20;;;;;19.34;76.59;99076.19;5065356;28;8850;-80
2023/07/31 03:43:26;;;;;;;;;39.00;34.80;;;;;19.11;77.99;99075.00;5054236;28;9642;-79
2023/07/31 03:45:55;;;;;;;;;37.20;33.80;;;;;18.85;79.45;99082.84;5048281;28;8826;-76
2023/07/31 03:48:26;;;;;;;;;40.00;34.40;;;;;18.69;80.45;99076.75;5064838;28;8973;-77
2023/07/31 03:50:56;;;;;;;;;31.60;30.60;;;;;18.84;80.01;99080.28;5067442;28;8835;-77
2023/07/31 03:53:25;;;;;;;;;38.80;34.20;;;;;18.12;83.70;99090.84;5088566;28;8869;-78
2023/07/31 03:55:54;;;;;;;;;36.80;33.20;;;;;17.86;85.14;99082.56;5085227;28;8941;-75
2023/07/31 03:58:23;;;;;;;;;38.00;34.00;;;;;17.63;86.33;99088.34;5068388;28;8852;-77
2023/07/31 04:00:53;;;;;;;;;45.25;37.75;;;;;17.71;86.25;99088.78;5068223;28;8831;-76
2023/07/31 04:03:22;;;;;;;;;35.20;32.60;;;;;17.53;87.38;99091.56;5084956;28;8856;-77
2023/07/31 04:05:51;;;;;;;;;33.60;31.40;;;;;17.84;84.60;99086.28;5013816;28;8860;-75
2023/07/31 04:08:20;;;;;;;;;31.40;30.80;;;;;17.77;84.68;99099.06;5036917;28;8991;-77
2023/07/31 04:10:49;;;;;;;;;33.80;31.40;;;;;17.64;85.54;99100.69;5080332;28;8884;-77
2023/07/31 04:13:17;;;;;;;;;29.00;27.20;;;;;17.48;86.22;99093.59;5063733;28;9007;-75
2023/07/31 04:15:50;;;;;;;;;30.40;29.20;;;;;17.37;86.46;99101.34;5072145;28;9614;-77
2023/07/31 04:18:20;;;;;;;;;31.20;31.00;;;;;17.21;87.73;99106.59;5072166;28;8860;-76
2023/07/31 04:20:49;;;;;;;;;34.40;32.60;;;;;17.07;89.02;99098.56;5069029;28;8846;-76
2023/07/31 04:23:18;;;;;;;;;27.60;26.80;;;;;17.04;87.48;99096.94;5076086;28;8832;-74
2023/07/31 04:25:47;;;;;;;;;30.00;29.40;;;;;17.02;87.66;99095.28;5106172;28;9985;-79
2023/07/31 04:28:15;;;;;;;;;33.40;29.60;;;;;17.12;87.29;99089.38;5087887;28;8834;-76
2023/07/31 04:30:44;;;;;;;;;29.60;28.20;;;;;16.93;88.52;99102.81;5038696;28;8862;-79
2023/07/31 04:33:17;;;;;;;;;32.40;31.80;;;;;17.12;87.75;99096.50;5071202;28;8866;-76
2023/07/31 04:35:52;;;;;;;;;30.80;28.20;;;;;17.24;86.47;99103.78;5088017;28;8842;-79
2023/07/31 04:38:21;;;;;;;;;28.20;27.00;;;;;17.22;86.27;99099.50;5056497;28;8977;-80
2023/07/31 04:40:50;;;;;;;;;40.60;37.00;;;;;17.43;85.10;99100.97;5079712;28;8838;-79
2023/07/31 04:43:18;;;;;;;;;28.20;26.60;;;;;17.55;84.04;99102.06;5066917;28;8930;-78
2023/07/31 04:45:49;;;;;;;;;28.80;27.80;;;;;17.50;84.15;99101.50;5033926;28;8836;-77
2023/07/31 04:48:18;;;;;;;;;32.80;32.20;;;;;17.38;84.91;99117.19;5053685;28;8887;-78
2023/07/31 04:50:47;;;;;;;;;27.80;26.40;;;;;17.37;85.02;99119.94;5031519;28;8920;-78
2023/07/31 04:53:16;;;;;;;;;28.00;26.60;;;;;17.48;83.99;99117.53;5047064;28;8873;-77
2023/07/31 04:55:45;;;;;;;;;26.00;24.20;;;;;17.50;84.12;99128.91;5030802;28;8853;-80
2023/07/31 04:58:14;;;;;;;;;29.40;27.20;;;;;17.46;84.18;99131.84;5050771;28;9523;-76
2023/07/31 05:00:43;;;;;;;;;25.40;25.40;;;;;17.50;83.67;99133.38;5044643;28;8862;-79
2023/07/31 05:03:12;;;;;;;;;24.20;23.20;;;;;17.58;83.04;99123.19;5030066;28;8893;-78
2023/07/31 05:05:41;;;;;;;;;25.80;24.80;;;;;17.87;81.51;99129.50;5037720;28;8854;-80
2023/07/31 05:08:10;;;;;;;;;29.40;28.20;;;;;17.53;82.72;99138.50;5016347;28;9659;-78
2023/07/31 05:10:40;;;;;;;;;26.00;23.80;;;;;17.43;83.34;99139.97;5067094;28;8862;-78
2023/07/31 05:13:09;;;;;;;;;24.20;23.60;;;;;17.37;83.92;99134.06;5057202;28;8860;-79
2023/07/31 05:15:38;;;;;;;;;22.20;21.60;;;;;17.46;83.29;99138.03;5067453;28;8850;-77
2023/07/31 05:18:06;;;;;;;;;18.40;18.40;;;;;17.48;81.12;99135.28;5069776;28;8854;-73
2023/07/31 05:20:36;;;;;;;;;22.00;21.20;;;;;17.67;82.08;99149.22;5032097;28;8861;-73
2023/07/31 05:23:04;;;;;;;;;23.00;23.00;;;;;17.77;81.27;99137.13;5070411;28;8962;-72
2023/07/31 05:25:33;;;;;;;;;24.60;23.00;;;;;17.75;81.41;99143.47;5069804;28;8842;-75
2023/07/31 05:28:03;;;;;;;;;23.20;22.60;;;;;17.75;81.64;99152.31;5067905;28;8854;-76
2023/07/31 05:30:32;;;;;;;;;20.80;19.40;;;;;17.64;82.04;99168.00;5070042;28;8931;-72
2023/07/31 05:33:02;;;;;;;;;23.00;21.80;;;;;17.74;81.78;99171.00;5062249;28;8881;-77
2023/07/31 05:35:31;;;;;;;;;19.60;19.60;;;;;17.79;81.87;99160.97;5033345;28;8881;-73
2023/07/31 05:37:59;;;;;;;;;23.00;22.00;;;;;17.99;80.68;99167.81;5037180;28;8898;-71
2023/07/31 05:40:28;;;;;;;;;24.20;23.20;;;;;18.20;79.43;99171.06;4977407;28;8841;-73
2023/07/31 05:42:57;;;;;;;;;23.40;23.40;;;;;18.46;78.93;99181.94;5045948;28;9020;-74
2023/07/31 05:45:27;;;;;;;;;23.80;23.80;;;;;18.97;76.50;99170.91;5033890;28;9730;-72
2023/07/31 05:47:56;;;;;;;;;32.20;30.40;;;;;18.60;78.06;99176.66;5052359;28;8916;-74
2023/07/31 05:50:25;;;;;;;;;24.60;24.40;;;;;18.79;76.83;99186.22;5034004;28;8859;-73
2023/07/31 05:52:54;;;;;;;;;22.60;22.60;;;;;18.01;79.26;99192.50;4985509;28;8988;-71
2023/07/31 05:55:23;;;;;;;;;24.00;24.00;;;;;17.97;80.27;99185.66;5044633;28;8856;-75
2023/07/31 05:57:52;;;;;;;;;23.40;21.00;;;;;17.80;81.16;99181.31;5025399;28;8940;-73
2023/07/31 06:00:22;;;;;;;;;24.40;23.40;;;;;17.83;81.11;99194.41;5041447;28;9023;-75
2023/07/31 06:02:52;;;;;;;;;23.20;22.40;;;;;18.01;79.83;99183.69;5040948;28;8855;-71
2023/07/31 06:05:21;;;;;;;;;20.80;20.80;;;;;18.09;79.64;99184.13;4987762;28;8882;-75
2023/07/31 06:07:50;;;;;;;;;19.80;19.80;;;;;18.37;77.21;99175.38;5030603;28;8924;-72
2023/07/31 06:10:19;;;;;;;;;22.80;21.80;;;;;18.31;77.83;99186.38;5061238;28;8850;-74
2023/07/31 06:12:47;;;;;;;;;21.80;20.80;;;;;18.28;78.80;99187.41;5066502;28;9711;-72
2023/07/31 06:15:17;;;;;;;;;21.60;21.60;;;;;18.34;78.58;99179.06;5068367;28;8986;-71
2023/07/31 06:17:46;;;;;;;;;21.00;19.00;;;;;18.36;79.01;99176.31;5066937;28;8850;-72
2023/07/31 06:20:17;;;;;;;;;26.60;26.20;;;;;18.97;77.16;99182.44;5062780;28;8881;-72
2023/07/31 06:22:45;;;;;;;;;23.60;23.00;;;;;18.84;76.50;99182.34;5053523;28;8841;-74
2023/07/31 06:25:14;;;;;;;;;23.00;23.00;;;;;18.77;76.31;99190.75;5061411;28;8996;-74
2023/07/31 06:27:43;;;;;;;;;20.80;20.40;;;;;18.63;76.35;99183.59;5056135;28;8965;-75
2023/07/31 06:30:13;;;;;;;;;19.40;19.40;;;;;18.81;74.93;99177.19;5049566;28;8962;-72
2023/07/31 06:32:41;;;;;;;;;21.00;21.00;;;;;18.63;75.98;99180.94;5064770;28;8860;-75
2023/07/31 06:35:11;;;;;;;;;20.20;20.20;;;;;18.70;74.62;99175.13;5065496;28;8859;-79
2023/07/31 06:37:43;;;;;;;;;20.40;20.40;;;;;18.87;73.70;99174.13;5008811;28;8868;-75
2023/07/31 06:40:13;;;;;;;;;24.20;24.20;;;;;18.63;75.08;99178.25;4992013;28;9622;-79
2023/07/31 06:42:41;;;;;;;;;25.20;25.00;;;;;18.69;74.30;99185.91;4992498;28;8882;-74
2023/07/31 06:45:11;;;;;;;;;24.60;23.00;;;;;18.94;72.63;99169.31;4976079;28;8829;-74
2023/07/31 06:47:40;;;;;;;;;18.80;18.00;;;;;18.83;73.68;99163.78;5008675;28;8864;-75
2023/07/31 06:50:09;;;;;;;;;21.80;20.60;;;;;18.84;73.27;99160.19;5008524;28;8839;-75
2023/07/31 06:52:38;;;;;;;;;29.80;25.80;;;;;19.09;72.76;99157.69;4992926;28;8877;-77
2023/07/31 06:55:19;;;;;;;;;20.20;20.00;;;;;19.43;71.22;99160.03;5025822;28;8868;-78
2023/07/31 06:57:49;;;;;;;;;22.60;22.60;;;;;19.40;70.60;99147.75;5016319;28;8863;-72
2023/07/31 07:00:19;;;;;;;;;23.00;21.20;;;;;19.62;69.92;99160.59;5025193;28;8876;-76
2023/07/31 07:02:48;;;;;;;;;21.00;21.00;;;;;19.46;69.98;99159.81;4975700;28;8910;-76
2023/07/31 07:05:18;;;;;;;;;24.60;23.20;;;;;20.06;68.75;99154.13;5008939;28;8855;-78
2023/07/31 07:07:47;;;;;;;;;22.80;21.80;;;;;20.39;66.69;99162.69;5009124;28;8863;-76
2023/07/31 07:10:18;;;;;;;;;22.40;22.20;;;;;20.35;65.86;99156.72;5009350;28;8859;-75
2023/07/31 07:12:47;;;;;;;;;20.00;18.80;;;;;20.36;66.19;99157.56;4960869;28;8875;-74
2023/07/31 07:15:16;;;;;;;;;18.40;17.20;;;;;21.11;64.38;99164.88;5042089;28;8838;-75
2023/07/31 07:17:46;;;;;;;;;17.80;17.80;;;;;20.71;64.72;99162.28;5064782;28;8867;-74
2023/07/31 07:20:16;;;;;;;;;21.60;19.60;;;;;20.28;65.35;99156.25;5034942;28;8867;-72
2023/07/31 07:22:44;;;;;;;;;17.40;17.40;;;;;20.31;65.26;99163.19;5015574;28;8985;-72
2023/07/31 07:25:13;;;;;;;;;19.80;19.80;;;;;20.52;66.07;99158.22;5067602;28;9639;-75
2023/07/31 07:27:43;;;;;;;;;16.80;16.00;;;;;21.36;63.87;99159.47;5036037;28;8927;-74
2023/07/31 07:30:14;;;;;;;;;18.80;17.00;;;;;21.30;61.70;99167.94;5067110;28;8846;-77
2023/07/31 07:32:42;;;;;;;;;16.80;16.80;;;;;21.39;60.77;99164.59;5065912;28;8932;-75
2023/07/31 07:35:11;;;;;;;;;16.20;14.80;;;;;21.41;60.23;99168.03;5066465;28;8905;-74
2023/07/31 07:37:40;;;;;;;;;18.60;18.60;;;;;21.06;60.99;99163.34;5044250;28;8881;-77
2023/07/31 07:40:10;;;;;;;;;15.20;15.20;;;;;20.92;60.73;99166.16;5065398;28;8878;-72
2023/07/31 07:42:38;;;;;;;;;20.40;18.00;;;;;21.13;61.99;99155.78;5069823;28;8890;-76
2023/07/31 07:45:10;;;;;;;;;17.20;17.00;;;;;21.61;60.12;99155.88;5071257;28;9105;-75
2023/07/31 07:47:39;;;;;;;;;16.00;16.00;;;;;21.73;59.38;99167.53;5035022;28;9729;-79
2023/07/31 07:50:09;;;;;;;;;15.00;14.80;;;;;21.43;59.92;99175.94;5069732;28;8861;-72
2023/07/31 07:52:37;;;;;;;;;14.00;13.80;;;;;21.05;60.14;99166.16;5071184;28;9596;-75
2023/07/31 07:55:07;;;;;;;;;14.40;14.40;;;;;21.06;60.61;99173.22;5063019;28;8947;-73
2023/07/31 07:57:36;;;;;;;;;19.80;18.40;;;;;21.22;61.20;99179.19;5065519;28;9763;-71
2023/07/31 08:00:07;;;;;;;;;15.00;14.60;;;;;21.26;59.89;99174.47;5068557;28;8854;-72
2023/07/31 08:02:44;;;;;;;;;13.20;12.60;;;;;21.33;57.45;99169.53;5035033;28;8945;-73
2023/07/31 08:05:13;;;;;;;;;12.80;9.60;;;;;21.01;56.21;99168.19;5069092;28;8835;-76
2023/07/31 08:07:42;;;;;;;;;10.80;10.40;;;;;21.11;58.23;99170.22;5070571;28;8862;-76
2023/07/31 08:10:11;;;;;;;;;10.60;10.20;;;;;21.41;57.20;99162.66;5070870;28;8936;-76
2023/07/31 08:12:39;;;;;;;;;11.00;11.00;;;;;21.58;57.03;99168.63;5070221;28;8985;-74
2023/07/31 08:15:09;;;;;;;;;12.60;12.00;;;;;22.08;55.64;99163.19;5070146;28;8943;-75
2023/07/31 08:17:38;;;;;;;;;12.80;12.80;;;;;22.04;54.27;99159.88;5070011;28;8855;-73
2023/07/31 08:20:10;;;;;;;;;12.20;12.20;;;;;21.67;55.50;99167.09;5070286;28;8888;-76
2023/07/31 08:22:39;;;;;;;;;9.00;8.20;;;;;21.32;56.19;99168.69;5068880;28;9676;-74
2023/07/31 08:25:08;;;;;;;;;9.60;9.60;;;;;21.06;56.11;99186.56;5035421;28;8909;-74
2023/07/31 08:27:37;;;;;;;;;13.20;12.80;;;;;21.35;56.45;99176.50;5065997;28;8880;-73
2023/07/31 08:30:08;;;;;;;;;10.40;9.20;;;;;21.48;55.08;99172.91;5061458;28;8862;-72
2023/07/31 08:32:37;;;;;;;;;8.00;8.00;;;;;21.36;56.10;99169.31;5070076;28;8847;-76
2023/07/31 08:35:08;;;;;;;;;10.00;8.60;;;;;21.39;56.33;99180.66;5069702;28;8874;-73
2023/07/31 08:37:37;;;;;;;;;11.80;11.40;;;;;21.25;56.39;99173.59;5069744;28;8970;-74
2023/07/31 08:40:07;;;;;;;;;11.60;11.00;;;;;21.27;56.82;99178.84;5031947;28;8877;-73
2023/07/31 08:42:44;;;;;;;;;8.60;8.00;;;;;20.98;58.08;99183.59;5066417;28;8927;-74
2023/07/31 08:45:16;;;;;;;;;9.00;9.00;;;;;20.98;58.57;99175.56;5070650;28;8850;-70
2023/07/31 08:47:46;;;;;;;;;12.40;11.20;;;;;20.82;59.16;99170.41;5034959;28;8874;-71
2023/07/31 08:50:22;;;;;;;;;10.20;9.00;;;;;20.77;60.07;99180.56;5033665;28;8878;-72
2023/07/31 08:52:53;;;;;;;;;12.80;12.80;;;;;21.17;59.15;99175.13;5067852;28;8900;-73
2023/07/31 08:55:25;;;;;;;;;12.20;11.40;;;;;20.86;59.92;99178.09;5069676;28;8908;-70
2023/07/31 08:57:56;;;;;;;;;12.20;11.80;;;;;20.90;59.68;99176.09;5069475;28;8920;-69
2023/07/31 09:00:26;;;;;;;;;12.40;11.00;;;;;21.08;59.58;99173.94;5021708;28;8844;-71
2023/07/31 09:03:01;;;;;;;;;11.40;10.20;;;;;21.01;58.11;99184.22;5067992;28;9726;-74
2023/07/31 09:05:33;;;;;;;;;17.40;17.40;;;;;21.41;57.68;99181.38;5069365;28;8941;-70
2023/07/31 09:08:05;;;;;;;;;9.00;9.00;;;;;21.17;57.73;99183.16;5069059;28;8897;-72
2023/07/31 09:10:34;;;;;;;;;9.80;9.80;;;;;21.26;57.08;99183.34;5068204;28;8878;-70
2023/07/31 09:13:04;;;;;;;;;11.40;10.80;;;;;21.36;57.33;99177.34;5067628;28;8839;-71
2023/07/31 09:15:35;;;;;;;;;9.60;9.20;;;;;21.72;55.71;99171.16;5034069;28;8870;-71
2023/07/31 09:18:07;;;;;;;;;10.00;9.80;;;;;22.30;53.78;99174.03;5068755;28;8838;-77
2023/07/31 09:20:38;;;;;;;;;10.00;8.20;;;;;22.56;52.56;99169.34;5069568;28;8854;-73
2023/07/31 09:23:09;;;;;;;;;6.20;6.20;;;;;22.80;50.30;99171.94;5069409;28;8854;-73
2023/07/31 09:25:39;;;;;;;;;8.00;8.00;;;;;22.97;49.76;99170.63;5067890;28;9040;-73
2023/07/31 09:28:09;;;;;;;;;6.60;6.60;;;;;22.70;48.73;99162.06;5067686;28;8843;-75
2023/07/31 09:30:50;;;;;;;;;5.60;5.60;;;;;22.35;50.45;99169.19;5069307;28;8847;-70
2023/07/31 09:33:20;;;;;;;;;10.60;9.00;;;;;22.45;50.03;99163.09;5068574;28;8846;-74
2023/07/31 09:35:50;;;;;;;;;8.40;8.40;;;;;23.11;50.16;99161.53;5068403;28;8978;-69
2023/07/31 09:38:19;;;;;;;;;9.40;9.40;;;;;22.70;50.45;99165.59;5068927;28;8871;-71
2023/07/31 09:40:49;;;;;;;;;6.80;6.80;;;;;23.16;50.38;99151.25;5068549;28;8850;-70
2023/07/31 09:43:20;;;;;;;;;8.80;8.60;;;;;22.45;50.57;99145.22;5068464;28;9588;-73
2023/07/31 09:45:49;;;;;;;;;8.00;8.00;;;;;22.67;50.61;99157.78;5068719;28;8870;-70
2023/07/31 09:48:19;;;;;;;;;8.60;8.60;;;;;22.02;50.68;99167.19;5068763;28;8862;-69
2023/07/31 09:50:50;;;;;;;;;9.00;9.00;;;;;21.71;52.10;99163.25;5062118;28;8935;-73
2023/07/31 09:53:19;;;;;;;;;7.40;6.80;;;;;21.56;52.45;99176.75;5069136;28;8863;-74
2023/07/31 09:55:48;;;;;;;;;8.80;7.20;;;;;21.74;52.15;99173.72;5068764;28;8917;-70
2023/07/31 09:58:17;;;;;;;;;6.80;6.80;;;;;21.63;52.03;99169.16;5068048;28;8842;-70
2023/07/31 10:00:46;;;;;;;;;8.80;7.80;;;;;21.80;50.83;99171.44;5068941;28;9615;-75
2023/07/31 10:03:16;;;;;;;;;9.80;9.80;;;;;21.74;51.11;99174.56;5067069;28;9596;-74
2023/07/31 10:05:50;;;;;;;;;10.20;8.00;;;;;21.75;50.08;99176.28;5066333;28;8850;-73
2023/07/31 10:08:24;;;;;;;;;8.00;8.00;;;;;21.64;49.91;99166.38;5066935;28;8843;-71
2023/07/31 10:10:53;;;;;;;;;7.00;7.00;;;;;21.54;48.94;99173.34;5068740;28;8854;-73
2023/07/31 10:13:22;;;;;;;;;7.20;7.20;;;;;22.16;48.36;99172.34;5068457;28;8874;-73
2023/07/31 10:15:51;;;;;;;;;4.80;4.80;;;;;22.12;48.26;99168.19;5067131;28;9646;-73
2023/07/31 10:18:21;;;;;;;;;7.00;7.00;;;;;22.56;47.66;99177.38;5068513;28;8905;-73
2023/07/31 10:20:50;;;;;;;;;7.20;6.80;;;;;22.26;46.61;99175.22;5068509;28;8854;-76
2023/07/31 10:23:21;;;;;;;;;6.20;6.20;;;;;22.21;46.59;99166.66;5067809;28;8854;-72
2023/07/31 10:25:53;;;;;;;;;7.20;7.20;;;;;22.52;47.64;99167.84;5068173;28;8854;-71
2023/07/31 10:28:22;;;;;;;;;7.00;7.00;;;;;22.94;44.24;99175.38;5067929;28;8846;-70
2023/07/31 10:30:54;;;;;;;;;7.40;6.60;;;;;22.94;44.31;99170.03;5055322;28;8881;-71
2023/07/31 10:33:24;;;;;;;;;7.00;7.00;;;;;23.29;44.69;99164.53;5057231;28;8855;-70
2023/07/31 10:36:13;;;;;;;;;7.80;7.80;;;;;23.16;42.87;99167.34;5067957;28;8907;-71
2023/07/31 10:38:43;;;;;;;;;8.00;7.20;;;;;23.29;42.63;99158.34;5066367;28;8952;-72
2023/07/31 10:41:12;;;;;;;;;6.20;6.00;;;;;22.88;42.90;99157.94;5067322;28;10875;-73
2023/07/31 10:43:41;;;;;;;;;6.20;5.80;;;;;23.18;42.70;99148.47;5067679;28;8866;-74
2023/07/31 10:46:13;;;;;;;;;6.80;6.80;;;;;22.83;43.05;99145.84;5068059;28;8915;-71
2023/07/31 10:48:42;;;;;;;;;7.80;7.40;;;;;22.92;42.70;99143.38;5067309;28;8882;-75
2023/07/31 10:51:12;;;;;;;;;8.60;6.00;;;;;23.14;42.97;99138.97;5067194;28;8854;-74
2023/07/31 10:53:43;;;;;;;;;5.20;5.20;;;;;23.74;42.26;99136.81;5062309;28;8860;-77
2023/07/31 10:56:13;;;;;;;;;4.00;4.00;;;;;24.13;40.45;99137.16;5062402;28;8874;-75
2023/07/31 10:58:45;;;;;;;;;9.40;9.40;;;;;24.32;38.93;99141.84;5068039;28;8858;-73
2023/07/31 11:01:14;;;;;;;;;4.00;4.00;;;;;23.80;37.36;99144.34;5065958;28;9682;-76
2023/07/31 11:03:45;;;;;;;;;5.20;5.00;;;;;23.60;37.46;99139.78;5067594;28;8862;-74
2023/07/31 11:06:14;;;;;;;;;10.60;10.00;;;;;23.74;37.17;99142.19;5066267;28;8866;-73
2023/07/31 11:08:49;;;;;;;;;4.20;4.20;;;;;23.88;36.63;99146.41;5066348;28;8874;-71
2023/07/31 11:11:20;;;;;;;;;4.20;4.20;;;;;24.38;37.09;99141.34;5067662;28;8868;-75
2023/07/31 11:13:52;;;;;;;;;3.80;3.80;;;;;24.79;35.89;99150.38;5066536;28;8951;-77
2023/07/31 11:16:23;;;;;;;;;4.40;4.40;;;;;24.73;35.99;99138.31;5069803;28;8980;-74
2023/07/31 11:18:53;;;;;;;;;5.20;5.20;;;;;25.06;34.46;99140.91;5071444;28;8997;-75
2023/07/31 11:21:24;;;;;;;;;4.40;4.40;;;;;24.50;34.24;99131.38;5072008;28;8850;-79
2023/07/31 11:23:58;;;;;;;;;3.20;3.20;;;;;24.45;35.32;99131.78;5070216;28;8855;-77
2023/07/31 11:26:28;;;;;;;;;3.80;3.40;;;;;24.89;33.54;99139.69;5070904;28;8843;-81
2023/07/31 11:28:57;;;;;;;;;5.60;5.60;;;;;24.44;33.30;99130.06;5071537;28;8854;-79
2023/07/31 11:31:26;;;;;;;;;3.20;3.20;;;;;24.09;33.01;99146.44;5088334;28;8846;-77
2023/07/31 11:34:05;;;;;;;;;4.80;4.80;;;;;23.95;32.24;99142.22;5039114;28;8897;-73
2023/07/31 11:36:35;;;;;;;;;4.00;3.60;;;;;23.84;33.85;99142.28;5087950;28;8963;-80
2023/07/31 11:39:09;;;;;;;;;4.60;4.40;;;;;23.99;33.35;99141.00;5061248;28;8942;-73
2023/07/31 11:41:41;;;;;;;;;5.20;4.60;;;;;24.53;32.54;99133.81;5037305;28;8864;-74